createdAt,value
2023-01-11T00:01:21.301Z,7.16
2023-01-11T00:03:50.026Z,7.16
2023-01-11T00:06:20.061Z,7.17
2023-01-11T00:08:48.574Z,7.18
2023-01-11T00:11:17.820Z,7.16
2023-01-11T00:13:49.027Z,7.18
2023-01-11T00:16:18.434Z,7.18
2023-01-11T00:18:46.892Z,7.17
2023-01-11T00:21:15.520Z,7.18
2023-01-11T00:23:45.294Z,7.18
2023-01-11T00:26:14.350Z,7.18
2023-01-11T00:28:42.840Z,7.18
2023-01-11T00:31:11.452Z,7.18
2023-01-11T00:33:39.958Z,7.18
2023-01-11T00:36:09.815Z,7.20
2023-01-11T00:38:54.747Z,7.20
2023-01-11T00:41:42.392Z,7.21
2023-01-11T00:44:28.818Z,7.24
2023-01-11T00:47:14.674Z,7.25
2023-01-11T00:49:43.382Z,7.28
2023-01-11T00:52:12.246Z,7.29
2023-01-11T00:54:42.221Z,7.32
2023-01-11T00:57:12.067Z,7.34
2023-01-11T00:59:40.602Z,7.36
2023-01-11T01:02:10.226Z,7.37
2023-01-11T01:04:38.837Z,7.40
2023-01-11T01:07:07.894Z,7.41
2023-01-11T01:09:36.340Z,7.43
2023-01-11T01:12:06.997Z,7.44
2023-01-11T01:14:36.397Z,7.48
2023-01-11T01:17:08.235Z,7.50
2023-01-11T01:19:38.776Z,7.53
2023-01-11T01:22:07.402Z,7.55
2023-01-11T01:24:35.940Z,7.57
2023-01-11T01:27:04.629Z,7.59
2023-01-11T01:29:33.259Z,7.61
2023-01-11T01:32:02.997Z,7.63
2023-01-11T01:34:31.425Z,7.62
2023-01-11T01:36:59.778Z,7.64
2023-01-11T01:39:28.395Z,7.65
2023-01-11T01:41:56.811Z,7.65
2023-01-11T01:45:00.885Z,7.68
2023-01-11T01:47:44.410Z,7.69
2023-01-11T01:50:21.466Z,7.71
2023-01-11T01:52:52.902Z,7.71
2023-01-11T01:55:28.246Z,7.74
2023-01-11T01:57:58.894Z,7.76
2023-01-11T02:00:27.457Z,7.77
2023-01-11T02:02:59.925Z,7.79
2023-01-11T02:05:28.734Z,7.81
2023-01-11T02:08:00.851Z,7.81
2023-01-11T02:10:29.464Z,7.85
2023-01-11T02:13:02.147Z,7.85
2023-01-11T02:15:30.979Z,7.87
2023-01-11T02:18:00.737Z,7.86
2023-01-11T02:21:02.498Z,7.88
2023-01-11T02:23:55.475Z,7.88
2023-01-11T02:27:07.659Z,7.88
2023-01-11T02:29:52.362Z,7.86
2023-01-11T02:32:28.905Z,7.86
2023-01-11T02:35:06.491Z,7.87
2023-01-11T02:37:43.742Z,7.89
2023-01-11T02:40:25.108Z,7.87
2023-01-11T02:43:16.324Z,7.87
2023-01-11T02:45:53.200Z,7.89
2023-01-11T02:48:38.309Z,7.89
2023-01-11T02:51:08.925Z,7.91
2023-01-11T02:53:42.520Z,7.92
2023-01-11T02:56:17.317Z,7.91
2023-01-11T02:58:47.898Z,7.92
2023-01-11T03:01:19.029Z,7.95
2023-01-11T03:03:47.556Z,7.96
2023-01-11T03:06:20.644Z,7.97
2023-01-11T03:09:12.672Z,8.00
2023-01-11T03:12:11.944Z,8.00
2023-01-11T03:14:49.484Z,8.02
2023-01-11T03:17:32.427Z,8.05
2023-01-11T03:20:10.552Z,8.08
2023-01-11T03:22:49.015Z,8.09
2023-01-11T03:25:23.468Z,8.10
2023-01-11T03:27:57.447Z,8.11
2023-01-11T03:30:35.875Z,8.13
2023-01-11T03:33:11.811Z,8.16
2023-01-11T03:35:44.253Z,8.18
2023-01-11T03:38:17.936Z,8.20
2023-01-11T03:40:51.670Z,8.20
2023-01-11T03:43:22.709Z,8.24
2023-01-11T03:45:55.068Z,8.24
2023-01-11T03:48:29.563Z,8.27
2023-01-11T03:51:02.912Z,8.29
2023-01-11T03:53:34.895Z,8.31
2023-01-11T03:56:06.867Z,8.32
2023-01-11T03:58:37.357Z,8.35
2023-01-11T04:01:05.965Z,8.35
2023-01-11T04:03:35.796Z,8.38
2023-01-11T04:06:04.430Z,8.40
2023-01-11T04:08:32.935Z,8.41
2023-01-11T04:11:01.343Z,8.43
2023-01-11T04:13:29.725Z,8.43
2023-01-11T04:15:58.205Z,8.45
2023-01-11T04:18:26.814Z,8.46
2023-01-11T04:20:56.718Z,8.48
2023-01-11T04:23:25.117Z,8.49
2023-01-11T04:25:53.597Z,8.51
2023-01-11T04:28:22.011Z,8.52
2023-01-11T04:30:50.474Z,8.53
2023-01-11T04:33:19.572Z,8.55
2023-01-11T04:35:49.902Z,8.55
2023-01-11T04:38:19.875Z,8.56
2023-01-11T04:40:49.007Z,8.58
2023-01-11T04:43:16.416Z,8.59
2023-01-11T04:45:44.894Z,8.60
2023-01-11T04:48:13.641Z,8.61
2023-01-11T04:50:42.597Z,8.62
2023-01-11T04:53:11.182Z,8.63
2023-01-11T04:55:41.172Z,8.66
2023-01-11T04:58:10.135Z,8.66
2023-01-11T05:00:38.773Z,8.68
2023-01-11T05:03:07.347Z,8.69
2023-01-11T05:05:36.436Z,8.71
2023-01-11T05:08:05.014Z,8.73
2023-01-11T05:10:33.876Z,8.75
2023-01-11T05:13:04.229Z,8.78
2023-01-11T05:15:35.786Z,8.80
2023-01-11T05:18:06.311Z,8.81
2023-01-11T05:20:36.073Z,8.84
2023-01-11T05:23:04.841Z,8.85
2023-01-11T05:25:33.437Z,8.88
2023-01-11T05:28:03.611Z,8.91
2023-01-11T05:30:36.468Z,8.92
2023-01-11T05:33:07.882Z,8.95
2023-01-11T05:35:36.905Z,8.97
2023-01-11T05:38:06.376Z,9.00
2023-01-11T05:40:35.946Z,9.00
2023-01-11T05:43:10.386Z,9.02
2023-01-11T05:45:38.972Z,9.05
2023-01-11T05:48:08.298Z,9.06
2023-01-11T05:50:39.051Z,9.07
2023-01-11T05:53:08.210Z,9.09
2023-01-11T05:55:39.614Z,9.12
2023-01-11T05:58:09.453Z,9.14
2023-01-11T06:00:38.039Z,9.16
2023-01-11T06:03:06.940Z,9.17
2023-01-11T06:05:36.144Z,9.19
2023-01-11T06:08:05.494Z,9.20
2023-01-11T06:10:35.613Z,9.21
2023-01-11T06:13:22.766Z,9.22
2023-01-11T06:15:56.651Z,9.24
2023-01-11T06:18:25.559Z,9.25
2023-01-11T06:21:05.239Z,9.25
2023-01-11T06:23:35.538Z,9.27
2023-01-11T06:26:05.253Z,9.28
2023-01-11T06:28:34.850Z,9.29
2023-01-11T06:31:09.311Z,9.31
2023-01-11T06:33:38.657Z,9.31
2023-01-11T06:36:09.269Z,9.33
2023-01-11T06:38:38.470Z,9.34
2023-01-11T06:41:09.671Z,9.35
2023-01-11T06:43:42.106Z,9.37
2023-01-11T06:46:14.100Z,9.39
2023-01-11T06:48:43.006Z,9.39
2023-01-11T06:51:12.554Z,9.40
2023-01-11T06:53:42.174Z,9.41
2023-01-11T06:56:13.991Z,9.42
2023-01-11T06:58:43.985Z,9.43
2023-01-11T07:01:15.834Z,9.44
2023-01-11T07:03:45.437Z,9.46
2023-01-11T07:06:14.293Z,9.46
2023-01-11T07:08:43.731Z,9.48
2023-01-11T07:11:13.570Z,9.50
2023-01-11T07:13:42.537Z,9.52
2023-01-11T07:16:17.804Z,9.53
2023-01-11T07:18:54.059Z,9.54
2023-01-11T07:21:23.086Z,9.55
2023-01-11T07:23:53.125Z,9.56
2023-01-11T07:26:21.731Z,9.59
2023-01-11T07:28:50.164Z,9.60
2023-01-11T07:31:18.712Z,9.62
2023-01-11T07:33:47.221Z,9.66
2023-01-11T07:36:16.942Z,9.68
2023-01-11T07:38:45.398Z,9.71
2023-01-11T07:41:27.624Z,9.73
2023-01-11T07:43:56.070Z,9.76
2023-01-11T07:46:24.566Z,9.77
2023-01-11T07:48:53.248Z,9.80
2023-01-11T07:51:24.349Z,9.83
2023-01-11T07:53:52.880Z,9.85
2023-01-11T07:56:23.437Z,9.88
2023-01-11T07:58:52.016Z,9.89
2023-01-11T08:01:20.341Z,9.91
2023-01-11T08:03:48.952Z,9.93
2023-01-11T08:06:17.561Z,9.94
2023-01-11T08:08:50.027Z,9.96
2023-01-11T08:11:35.918Z,9.99
2023-01-11T08:14:21.570Z,10.01
2023-01-11T08:16:49.963Z,10.03
2023-01-11T08:19:18.569Z,10.04
2023-01-11T08:21:46.980Z,10.07
2023-01-11T08:24:17.035Z,10.09
2023-01-11T08:26:46.916Z,10.11
2023-01-11T08:29:15.382Z,10.12
2023-01-11T08:31:45.163Z,10.13
2023-01-11T08:34:19.438Z,10.19
2023-01-11T08:36:47.965Z,10.20
2023-01-11T08:39:17.835Z,10.23
2023-01-11T08:41:46.264Z,10.24
2023-01-11T08:44:22.310Z,10.26
2023-01-11T08:47:02.519Z,10.26
2023-01-11T08:49:31.463Z,10.28
2023-01-11T08:51:59.910Z,10.29
2023-01-11T08:54:29.654Z,10.29
2023-01-11T08:56:58.165Z,10.27
2023-01-11T08:59:26.688Z,10.26
2023-01-11T09:01:55.095Z,10.25
2023-01-11T09:04:25.413Z,10.25
2023-01-11T09:06:54.792Z,10.24
2023-01-11T09:09:23.348Z,10.22
2023-01-11T09:11:56.868Z,10.22
2023-01-11T09:14:27.160Z,10.21
2023-01-11T09:16:56.667Z,10.20
2023-01-11T09:19:25.589Z,10.19
2023-01-11T09:21:58.120Z,10.19
2023-01-11T09:24:26.721Z,10.16
2023-01-11T09:27:00.605Z,10.15
2023-01-11T09:29:29.283Z,10.13
2023-01-11T09:32:00.767Z,10.13
2023-01-11T09:34:29.127Z,10.12
2023-01-11T09:37:00.660Z,10.11
2023-01-11T09:39:29.572Z,10.10
2023-01-11T09:42:15.598Z,10.08
2023-01-11T09:44:51.656Z,10.05
2023-01-11T09:47:32.506Z,10.04
2023-01-11T09:50:16.663Z,10.02
2023-01-11T09:52:49.755Z,10.01
2023-01-11T09:55:24.604Z,10.00
2023-01-11T09:58:03.623Z,9.97
2023-01-11T10:00:42.889Z,9.94
2023-01-11T10:03:39.470Z,9.92
2023-01-11T10:06:17.506Z,9.91
2023-01-11T10:18:32.088Z,9.86
2023-01-11T10:18:44.804Z,9.85
2023-01-11T10:21:15.835Z,9.85
2023-01-11T10:23:50.697Z,9.84
2023-01-11T10:26:31.180Z,9.84
2023-01-11T10:29:21.906Z,9.85
2023-01-11T10:32:33.878Z,9.83
2023-01-11T10:35:33.038Z,9.83
2023-01-11T10:38:25.303Z,9.83
2023-01-11T10:41:09.587Z,9.83
2023-01-11T10:43:42.654Z,9.84
2023-01-11T10:46:17.197Z,9.83
2023-01-11T10:48:49.054Z,9.84
2023-01-11T10:51:27.266Z,9.83
2023-01-11T10:54:02.954Z,9.84
2023-01-11T10:57:01.659Z,9.83
2023-01-11T10:59:48.586Z,9.83
2023-01-11T11:02:30.011Z,9.83
2023-01-11T11:05:12.865Z,9.82
2023-01-11T11:07:51.237Z,9.84
2023-01-11T11:10:25.804Z,9.83
2023-01-11T11:12:57.375Z,9.84
2023-01-11T11:15:33.673Z,9.83
2023-01-11T11:18:02.160Z,9.85
2023-01-11T11:20:34.138Z,9.85
2023-01-11T11:23:02.601Z,9.87
2023-01-11T11:25:47.817Z,9.88
2023-01-11T11:28:28.212Z,9.92
2023-01-11T11:30:59.016Z,9.94
2023-01-11T11:33:35.492Z,9.94
2023-01-11T11:36:12.559Z,9.95
2023-01-11T11:39:01.825Z,9.98
2023-01-11T11:41:30.304Z,10.01
2023-01-11T11:44:18.596Z,10.02
2023-01-11T11:46:58.594Z,10.04
2023-01-11T11:49:28.191Z,10.06
2023-01-11T11:52:00.377Z,10.06
2023-01-11T11:54:31.601Z,10.08
2023-01-11T11:57:13.674Z,10.11
2023-01-11T11:59:47.301Z,10.12
2023-01-11T12:02:26.021Z,10.15
2023-01-11T12:04:57.466Z,10.17
2023-01-11T12:07:34.431Z,10.18
2023-01-11T12:10:12.838Z,10.14
2023-01-11T12:12:51.068Z,10.08
2023-01-11T12:15:23.598Z,10.05
2023-01-11T12:17:55.131Z,10.01
2023-01-11T12:20:32.201Z,9.97
2023-01-11T12:23:16.849Z,9.93
2023-01-11T12:26:12.543Z,9.91
2023-01-11T12:29:08.183Z,9.89
2023-01-11T12:31:50.360Z,9.90
2023-01-11T12:34:33.573Z,9.96
2023-01-11T12:37:17.046Z,10.01
2023-01-11T12:39:54.576Z,10.03
2023-01-11T12:42:51.044Z,10.04
2023-01-11T12:45:37.215Z,10.06
2023-01-11T12:48:26.308Z,10.04
2023-01-11T12:51:07.557Z,10.04
2023-01-11T12:53:52.894Z,10.05
2023-01-11T12:56:36.524Z,10.07
2023-01-11T12:59:18.520Z,10.08
2023-01-11T13:01:57.243Z,10.10
2023-01-11T13:05:00.418Z,10.13
2023-01-11T13:07:39.958Z,10.12
2023-01-11T13:10:34.204Z,10.12
2023-01-11T13:13:12.120Z,10.11
2023-01-11T13:15:49.473Z,10.12
2023-01-11T13:18:28.646Z,10.11
2023-01-11T13:21:03.226Z,10.11
2023-01-11T13:23:40.239Z,10.07
2023-01-11T13:26:18.719Z,10.05
2023-01-11T13:28:53.012Z,10.04
2023-01-11T13:31:21.606Z,10.04
2023-01-11T13:33:57.338Z,10.07
2023-01-11T13:36:29.418Z,10.11
2023-01-11T13:39:03.530Z,10.12
2023-01-11T13:41:39.307Z,10.15
2023-01-11T13:44:16.860Z,10.18
2023-01-11T13:46:54.896Z,10.19
2023-01-11T13:49:49.188Z,10.20
2023-01-11T13:52:20.881Z,10.18
2023-01-11T13:55:05.597Z,10.17
2023-01-11T13:57:44.472Z,10.18
2023-01-11T14:00:23.679Z,10.18
2023-01-11T14:02:59.882Z,10.22
2023-01-11T14:05:35.094Z,10.26
2023-01-11T14:08:18.791Z,10.25
2023-01-11T14:10:56.395Z,10.22
2023-01-11T14:14:06.464Z,10.23
2023-01-11T14:16:46.281Z,10.25
2023-01-11T14:19:23.794Z,10.24
2023-01-11T14:22:05.821Z,10.24
2023-01-11T14:24:39.658Z,10.23
2023-01-11T14:27:25.683Z,10.20
2023-01-11T14:30:27.948Z,10.15
2023-01-11T14:33:36.854Z,10.11
2023-01-11T14:36:29.711Z,10.11
2023-01-11T14:39:24.531Z,10.12
2023-01-11T14:42:31.069Z,10.11
2023-01-11T14:45:23.428Z,10.12
2023-01-11T14:48:04.956Z,10.14
2023-01-11T14:50:46.570Z,10.16
2023-01-11T14:53:21.000Z,10.14
2023-01-11T14:55:49.797Z,10.13
2023-01-11T14:58:24.857Z,10.13
2023-01-11T15:01:09.537Z,10.13
2023-01-11T15:03:58.529Z,10.13
2023-01-11T15:06:53.922Z,10.10
2023-01-11T15:09:44.772Z,10.08
2023-01-11T15:12:15.075Z,10.07
2023-01-11T15:14:48.358Z,10.07
2023-01-11T15:17:37.437Z,10.04
2023-01-11T15:20:11.828Z,10.03
2023-01-11T15:22:42.357Z,10.02
2023-01-11T15:25:22.968Z,10.00
2023-01-11T15:27:54.896Z,9.96
2023-01-11T15:30:43.098Z,9.94
2023-01-11T15:33:46.726Z,9.93
2023-01-11T15:36:19.892Z,9.90
2023-01-11T15:39:02.110Z,9.88
2023-01-11T15:42:06.532Z,9.83
2023-01-11T15:44:53.738Z,9.81
2023-01-11T15:47:54.880Z,9.79
2023-01-11T15:50:52.382Z,9.75
2023-01-11T15:53:45.859Z,9.71
2023-01-11T15:56:47.704Z,9.71
2023-01-11T15:59:56.579Z,9.70
2023-01-11T16:03:13.382Z,9.70
2023-01-11T16:05:45.176Z,9.70
2023-01-11T16:08:20.617Z,9.70
2023-01-11T16:10:57.814Z,9.69
2023-01-11T16:14:01.340Z,9.67
2023-01-11T16:16:32.358Z,9.65
2023-01-11T16:19:08.995Z,9.64
2023-01-11T16:21:44.134Z,9.61
2023-01-11T16:24:20.332Z,9.61
2023-01-11T16:26:52.253Z,9.59
2023-01-11T16:29:24.685Z,9.59
2023-01-11T16:31:58.431Z,9.57
2023-01-11T16:34:33.355Z,9.56
2023-01-11T16:37:03.441Z,9.55
2023-01-11T16:39:35.697Z,9.53
2023-01-11T16:42:11.796Z,9.51
2023-01-11T16:44:53.249Z,9.51
2023-01-11T16:47:23.154Z,9.51
2023-01-11T16:50:21.253Z,9.52
2023-01-11T16:52:53.350Z,9.52
2023-01-11T16:55:36.057Z,9.52
2023-01-11T16:58:07.953Z,9.52
2023-01-11T17:00:42.251Z,9.50
2023-01-11T17:03:22.505Z,9.52
2023-01-11T17:06:26.281Z,9.52
2023-01-11T17:08:56.737Z,9.50
2023-01-11T17:11:32.362Z,9.49
2023-01-11T17:14:33.917Z,9.48
2023-01-11T17:17:07.906Z,9.45
2023-01-11T17:19:45.314Z,9.41
2023-01-11T17:22:26.559Z,9.41
2023-01-11T17:24:59.946Z,9.39
2023-01-11T17:27:35.607Z,9.37
2023-01-11T17:30:06.615Z,9.34
2023-01-11T17:32:39.173Z,9.31
2023-01-11T17:35:15.671Z,9.29
2023-01-11T17:37:46.436Z,9.30
2023-01-11T17:40:24.041Z,9.29
2023-01-11T17:43:10.619Z,9.27
2023-01-11T17:45:39.581Z,9.23
2023-01-11T17:48:15.046Z,9.21
2023-01-11T17:50:49.043Z,9.18
2023-01-11T17:53:22.227Z,9.15
2023-01-11T17:55:52.257Z,9.11
2023-01-11T17:58:26.188Z,9.10
2023-01-11T18:01:18.146Z,9.10
2023-01-11T18:03:52.638Z,9.09
2023-01-11T18:06:25.323Z,9.08
2023-01-11T18:08:55.566Z,9.06
2023-01-11T18:11:26.168Z,9.05
2023-01-11T18:13:56.388Z,9.04
2023-01-11T18:16:25.028Z,9.02
2023-01-11T18:18:55.825Z,9.00
2023-01-11T18:21:52.667Z,8.98
2023-01-11T18:24:45.039Z,8.95
2023-01-11T18:27:26.265Z,8.93
2023-01-11T18:29:55.979Z,8.93
2023-01-11T18:32:24.686Z,8.90
2023-01-11T18:34:56.300Z,8.88
2023-01-11T18:37:24.709Z,8.85
2023-01-11T18:39:53.975Z,8.82
2023-01-11T18:42:28.623Z,8.81
2023-01-11T18:44:56.944Z,8.78
2023-01-11T18:47:27.213Z,8.76
2023-01-11T18:49:57.980Z,8.77
2023-01-11T18:52:27.972Z,8.77
2023-01-11T18:54:57.142Z,8.76
2023-01-11T18:57:26.283Z,8.76
2023-01-11T18:59:55.772Z,8.75
2023-01-11T19:02:26.816Z,8.77
2023-01-11T19:04:58.008Z,8.76
2023-01-11T19:07:27.465Z,8.75
2023-01-11T19:09:55.943Z,8.73
2023-01-11T19:12:24.851Z,8.72
2023-01-11T19:15:01.667Z,8.69
2023-01-11T19:17:30.138Z,8.67
2023-01-11T19:20:00.040Z,8.66
2023-01-11T19:22:33.333Z,8.66
2023-01-11T19:25:01.837Z,8.62
2023-01-11T19:27:30.270Z,8.62
2023-01-11T19:30:06.153Z,8.60
2023-01-11T19:32:34.594Z,8.61
2023-01-11T19:35:04.701Z,8.60
2023-01-11T19:37:34.127Z,8.62
2023-01-11T19:40:02.714Z,8.61
2023-01-11T19:42:31.250Z,8.62
2023-01-11T19:44:59.695Z,8.61
2023-01-11T19:47:28.190Z,8.60
2023-01-11T19:49:59.008Z,8.61
2023-01-11T19:52:29.068Z,8.61
2023-01-11T19:54:58.099Z,8.60
2023-01-11T19:57:27.496Z,8.60
2023-01-11T19:59:55.947Z,8.59
2023-01-11T20:02:24.566Z,8.60
2023-01-11T20:04:53.044Z,8.60
2023-01-11T20:07:21.727Z,8.60
2023-01-11T20:09:51.703Z,8.60
2023-01-11T20:12:20.160Z,8.60
2023-01-11T20:14:48.751Z,8.58
2023-01-11T20:17:20.888Z,8.60
2023-01-11T20:19:54.517Z,8.61
2023-01-11T20:22:23.665Z,8.62
2023-01-11T20:24:56.972Z,8.63
2023-01-11T20:27:25.551Z,8.63
2023-01-11T20:29:54.168Z,8.65
2023-01-11T20:32:40.450Z,8.66
2023-01-11T20:35:11.425Z,8.69
2023-01-11T20:37:39.878Z,8.68
2023-01-11T20:40:14.179Z,8.69
2023-01-11T20:42:43.096Z,8.70
2023-01-11T20:45:12.855Z,8.71
2023-01-11T20:47:41.332Z,8.72
2023-01-11T20:50:10.902Z,8.74
2023-01-11T20:52:42.237Z,8.76
2023-01-11T20:55:12.419Z,8.77
2023-01-11T20:57:42.006Z,8.79
2023-01-11T21:00:14.406Z,8.80
2023-01-11T21:02:47.824Z,8.80
2023-01-11T21:05:21.373Z,8.82
2023-01-11T21:07:53.778Z,8.83
2023-01-11T21:10:27.428Z,8.84
2023-01-11T21:13:04.381Z,8.87
2023-01-11T21:15:34.729Z,8.88
2023-01-11T21:18:03.161Z,8.90
2023-01-11T21:20:35.028Z,8.92
2023-01-11T21:23:10.728Z,8.92
2023-01-11T21:25:44.031Z,8.92
2023-01-11T21:28:13.727Z,8.93
2023-01-11T21:30:42.173Z,8.94
2023-01-11T21:33:10.551Z,8.93
2023-01-11T21:35:39.002Z,8.96
2023-01-11T21:38:07.502Z,9.00
2023-01-11T21:40:35.934Z,9.05
2023-01-11T21:43:07.749Z,9.09
2023-01-11T21:45:36.254Z,9.12
2023-01-11T21:48:07.239Z,9.16
2023-01-11T21:50:35.654Z,9.21
2023-01-11T21:53:06.049Z,9.22
2023-01-11T21:55:34.566Z,9.24
2023-01-11T21:58:02.938Z,9.24
2023-01-11T22:00:32.874Z,9.25
2023-01-11T22:03:04.024Z,9.24
2023-01-11T22:05:33.122Z,9.23
2023-01-11T22:08:18.610Z,9.21
2023-01-11T22:10:59.072Z,9.20
2023-01-11T22:13:29.632Z,9.17
2023-01-11T22:16:02.163Z,9.14
2023-01-11T22:18:30.996Z,9.13
2023-01-11T22:21:06.043Z,9.11
2023-01-11T22:23:37.593Z,9.09
2023-01-11T22:26:09.631Z,9.09
2023-01-11T22:28:55.173Z,9.08
2023-01-11T22:31:27.366Z,9.05
2023-01-11T22:33:56.708Z,9.02
2023-01-11T22:36:26.099Z,9.03
2023-01-11T22:38:55.347Z,9.01
2023-01-11T22:41:25.431Z,8.98
2023-01-11T22:43:54.708Z,8.95
2023-01-11T22:46:25.914Z,8.91
2023-01-11T22:48:54.645Z,8.86
2023-01-11T22:51:24.997Z,8.83
2023-01-11T22:53:55.157Z,8.79
2023-01-11T22:56:25.961Z,8.77
2023-01-11T22:58:55.047Z,8.75
2023-01-11T23:01:26.325Z,8.73
2023-01-11T23:03:56.244Z,8.72
2023-01-11T23:06:26.461Z,8.72
2023-01-11T23:08:55.468Z,8.72
2023-01-11T23:11:43.371Z,8.71
2023-01-11T23:14:14.345Z,8.72
2023-01-11T23:16:44.876Z,8.72
2023-01-11T23:19:16.873Z,8.71
2023-01-11T23:21:46.138Z,8.71
2023-01-11T23:24:16.430Z,8.71
2023-01-11T23:26:45.456Z,8.71
2023-01-11T23:29:14.217Z,8.70
2023-01-11T23:31:44.322Z,8.68
2023-01-11T23:34:12.975Z,8.67
2023-01-11T23:36:43.019Z,8.65
2023-01-11T23:39:15.011Z,8.63
2023-01-11T23:42:04.521Z,8.59
2023-01-11T23:44:38.251Z,8.57
2023-01-11T23:47:22.027Z,8.54
2023-01-11T23:49:51.183Z,8.51
2023-01-11T23:52:20.817Z,8.48
2023-01-11T23:54:51.181Z,8.45
2023-01-11T23:57:21.339Z,8.42
2023-01-11T23:59:53.898Z,8.38
